createdAt,value
2017-05-27T00:00:24.726Z,0
2017-05-27T00:01:26.191Z,0
2017-05-27T00:02:27.654Z,0
2017-05-27T00:03:29.112Z,0
2017-05-27T00:04:30.568Z,0
2017-05-27T00:05:32.027Z,0
2017-05-27T00:06:33.491Z,0
2017-05-27T00:07:34.953Z,0
2017-05-27T00:08:36.410Z,0
2017-05-27T00:09:37.868Z,0
2017-05-27T00:10:39.321Z,0
2017-05-27T00:11:40.820Z,0
2017-05-27T00:12:42.286Z,0
2017-05-27T00:13:43.747Z,0
2017-05-27T00:14:45.209Z,0
2017-05-27T00:15:46.658Z,0
2017-05-27T00:16:48.125Z,0
2017-05-27T00:17:49.583Z,0
2017-05-27T00:18:51.037Z,0
2017-05-27T00:19:52.504Z,0
2017-05-27T00:20:53.955Z,0
2017-05-27T00:21:55.421Z,0
2017-05-27T00:22:56.909Z,0
2017-05-27T00:23:58.361Z,0
2017-05-27T00:24:59.824Z,0
2017-05-27T00:26:01.954Z,0
2017-05-27T00:27:03.418Z,0
2017-05-27T00:28:04.876Z,0
2017-05-27T00:29:06.356Z,0
2017-05-27T00:30:07.808Z,0
2017-05-27T00:31:09.265Z,0
2017-05-27T00:32:10.723Z,0
2017-05-27T00:33:12.177Z,0
2017-05-27T00:34:13.645Z,0
2017-05-27T00:35:15.101Z,0
2017-05-27T00:36:16.559Z,0
2017-05-27T00:37:18.023Z,0
2017-05-27T00:38:19.489Z,0
2017-05-27T00:39:20.940Z,0
2017-05-27T00:40:22.399Z,0
2017-05-27T00:41:23.851Z,0
2017-05-27T00:42:25.308Z,0
2017-05-27T00:43:26.762Z,0
2017-05-27T00:44:28.225Z,0
2017-05-27T00:45:29.686Z,0
2017-05-27T00:46:31.145Z,0
2017-05-27T00:47:32.601Z,0
2017-05-27T00:48:34.059Z,0
2017-05-27T00:49:35.535Z,0
2017-05-27T00:50:36.997Z,0
2017-05-27T00:51:38.459Z,0
2017-05-27T00:52:39.919Z,0
2017-05-27T00:53:41.373Z,0
2017-05-27T00:54:42.826Z,0
2017-05-27T00:55:44.279Z,0
2017-05-27T00:56:45.773Z,0
2017-05-27T00:57:47.232Z,0
2017-05-27T00:58:48.690Z,0
2017-05-27T00:59:50.191Z,0
2017-05-27T01:00:51.600Z,0
2017-05-27T01:01:53.055Z,0
2017-05-27T01:02:54.525Z,0
2017-05-27T01:03:55.996Z,0
2017-05-27T01:04:57.453Z,0
2017-05-27T01:05:58.918Z,0
2017-05-27T01:07:00.368Z,0
2017-05-27T01:08:01.862Z,0
2017-05-27T01:09:03.322Z,0
2017-05-27T01:10:04.781Z,0
2017-05-27T01:11:06.245Z,0
2017-05-27T01:12:07.713Z,0
2017-05-27T01:13:09.181Z,0
2017-05-27T01:14:10.639Z,0
2017-05-27T01:15:12.096Z,0
2017-05-27T01:16:13.565Z,0
2017-05-27T01:17:15.023Z,0
2017-05-27T01:18:16.486Z,0
2017-05-27T01:19:17.943Z,0
2017-05-27T01:20:19.400Z,0
2017-05-27T01:21:20.880Z,0
2017-05-27T01:22:22.330Z,0
2017-05-27T01:23:23.790Z,0
2017-05-27T01:24:25.247Z,0
2017-05-27T01:25:26.708Z,0
2017-05-27T01:26:28.166Z,0
2017-05-27T01:27:29.626Z,0
2017-05-27T01:28:31.081Z,0
2017-05-27T01:29:32.538Z,0
2017-05-27T01:30:33.995Z,0
2017-05-27T01:31:35.453Z,0
2017-05-27T01:32:36.905Z,0
2017-05-27T01:33:38.369Z,0
2017-05-27T01:34:39.818Z,0
2017-05-27T01:35:41.279Z,0
2017-05-27T01:36:42.744Z,0
2017-05-27T01:37:44.201Z,0
2017-05-27T01:38:45.661Z,0
2017-05-27T01:39:47.113Z,0
2017-05-27T01:40:48.578Z,0
2017-05-27T01:41:50.040Z,0
2017-05-27T01:42:51.491Z,0
2017-05-27T01:43:52.940Z,0
2017-05-27T01:44:54.399Z,0
2017-05-27T01:45:55.856Z,0
2017-05-27T01:46:57.326Z,0
2017-05-27T01:47:58.790Z,0
2017-05-27T01:49:00.242Z,0
2017-05-27T01:50:01.714Z,0
2017-05-27T01:51:03.180Z,0
2017-05-27T01:52:04.632Z,0
2017-05-27T01:53:06.091Z,0
2017-05-27T01:54:07.544Z,0
2017-05-27T01:55:09.002Z,0
2017-05-27T01:56:10.463Z,0
2017-05-27T01:57:11.915Z,0
2017-05-27T01:58:13.371Z,0
2017-05-27T01:59:14.826Z,0
2017-05-27T02:00:16.284Z,0
2017-05-27T02:01:17.736Z,0
2017-05-27T02:02:19.194Z,0
2017-05-27T02:03:20.649Z,0
2017-05-27T02:04:22.104Z,0
2017-05-27T02:05:23.566Z,0
2017-05-27T02:06:25.242Z,0
2017-05-27T02:07:26.692Z,0
2017-05-27T02:08:28.155Z,0
2017-05-27T02:09:29.620Z,0
2017-05-27T02:10:31.081Z,0
2017-05-27T02:11:32.542Z,0
2017-05-27T02:12:33.988Z,0
2017-05-27T02:13:35.447Z,0
2017-05-27T02:14:36.901Z,0
2017-05-27T02:15:38.360Z,0
2017-05-27T02:16:39.820Z,0
2017-05-27T02:17:41.282Z,0
2017-05-27T02:18:42.735Z,0
2017-05-27T02:19:44.193Z,0
2017-05-27T02:20:45.649Z,0
2017-05-27T02:21:47.104Z,0
2017-05-27T02:22:48.555Z,0
2017-05-27T02:23:50.016Z,0
2017-05-27T02:24:51.470Z,0
2017-05-27T02:25:52.925Z,0
2017-05-27T02:26:54.390Z,0
2017-05-27T02:27:55.866Z,0
2017-05-27T02:28:57.318Z,0
2017-05-27T02:29:58.774Z,0
2017-05-27T02:31:00.232Z,0
2017-05-27T02:32:01.689Z,0
2017-05-27T02:33:03.140Z,0
2017-05-27T02:34:04.597Z,0
2017-05-27T02:35:06.050Z,4
2017-05-27T02:36:07.515Z,4
2017-05-27T02:37:08.971Z,4
2017-05-27T02:38:10.424Z,0
2017-05-27T02:39:11.883Z,4
2017-05-27T02:40:13.336Z,4
2017-05-27T02:41:14.793Z,4
2017-05-27T02:42:16.257Z,4
2017-05-27T02:43:17.713Z,8
2017-05-27T02:44:19.167Z,4
2017-05-27T02:45:20.628Z,8
2017-05-27T02:46:22.090Z,8
2017-05-27T02:47:23.542Z,8
2017-05-27T02:48:25.002Z,12
2017-05-27T02:49:26.457Z,16
2017-05-27T02:50:27.914Z,12
2017-05-27T02:51:29.376Z,16
2017-05-27T02:52:30.841Z,20
2017-05-27T02:53:32.298Z,24
2017-05-27T02:54:33.755Z,28
2017-05-27T02:55:35.208Z,32
2017-05-27T02:56:36.666Z,32
2017-05-27T02:57:38.124Z,36
2017-05-27T02:58:39.581Z,44
2017-05-27T02:59:41.036Z,52
2017-05-27T03:00:42.501Z,60
2017-05-27T03:01:43.956Z,64
2017-05-27T03:02:45.406Z,76
2017-05-27T03:03:46.865Z,84
2017-05-27T03:04:48.318Z,96
2017-05-27T03:05:49.771Z,108
2017-05-27T03:06:51.246Z,120
2017-05-27T03:07:52.703Z,136
2017-05-27T03:08:54.167Z,152
2017-05-27T03:09:55.620Z,172
2017-05-27T03:10:57.082Z,188
2017-05-27T03:11:58.535Z,208
2017-05-27T03:12:59.994Z,232
2017-05-27T03:14:01.473Z,256
2017-05-27T03:15:02.933Z,284
2017-05-27T03:16:04.394Z,312
2017-05-27T03:17:05.849Z,340
2017-05-27T03:18:07.304Z,372
2017-05-27T03:19:08.760Z,408
2017-05-27T03:20:10.221Z,436
2017-05-27T03:21:11.684Z,472
2017-05-27T03:22:13.151Z,512
2017-05-27T03:23:14.619Z,552
2017-05-27T03:24:16.077Z,592
2017-05-27T03:25:17.528Z,640
2017-05-27T03:26:18.998Z,684
2017-05-27T03:27:20.456Z,732
2017-05-27T03:28:21.917Z,780
2017-05-27T03:29:23.376Z,828
2017-05-27T03:30:24.849Z,884
2017-05-27T03:31:26.301Z,936
2017-05-27T03:32:27.759Z,988
2017-05-27T03:33:29.218Z,1044
2017-05-27T03:34:30.673Z,1096
2017-05-27T03:35:32.134Z,1152
2017-05-27T03:36:33.600Z,1204
2017-05-27T03:37:35.055Z,1264
2017-05-27T03:38:36.512Z,1332
2017-05-27T03:39:37.967Z,1380
2017-05-27T03:40:39.423Z,1448
2017-05-27T03:41:40.890Z,1492
2017-05-27T03:42:42.347Z,1572
2017-05-27T03:43:43.813Z,1632
2017-05-27T03:44:45.271Z,1704
2017-05-27T03:45:46.731Z,1756
2017-05-27T03:46:48.192Z,1824
2017-05-27T03:47:49.660Z,1864
2017-05-27T03:48:51.120Z,1940
2017-05-27T03:49:52.583Z,2004
2017-05-27T03:50:54.037Z,2052
2017-05-27T03:51:55.494Z,2152
2017-05-27T03:52:56.955Z,2180
2017-05-27T03:53:58.410Z,2236
2017-05-27T03:54:59.864Z,2300
2017-05-27T03:56:02.106Z,2316
2017-05-27T03:57:03.567Z,2408
2017-05-27T03:58:05.035Z,2440
2017-05-27T03:59:06.500Z,2512
2017-05-27T04:00:07.957Z,2564
2017-05-27T04:01:09.423Z,2636
2017-05-27T04:02:10.875Z,2612
2017-05-27T04:03:12.336Z,2756
2017-05-27T04:04:13.793Z,2796
2017-05-27T04:05:15.257Z,2852
2017-05-27T04:06:16.760Z,2904
2017-05-27T04:07:18.217Z,2988
2017-05-27T04:08:19.702Z,3016
2017-05-27T04:09:21.162Z,3084
2017-05-27T04:10:22.623Z,3080
2017-05-27T04:11:24.081Z,3180
2017-05-27T04:12:25.549Z,3224
2017-05-27T04:13:27.005Z,3268
2017-05-27T04:14:28.477Z,3328
2017-05-27T04:15:29.936Z,3368
2017-05-27T04:16:31.408Z,3428
2017-05-27T04:17:32.873Z,3472
2017-05-27T04:18:34.340Z,3528
2017-05-27T04:19:35.809Z,3564
2017-05-27T04:20:37.267Z,3612
2017-05-27T04:21:38.734Z,3680
2017-05-27T04:22:40.202Z,3744
2017-05-27T04:23:41.657Z,3776
2017-05-27T04:24:43.128Z,3752
2017-05-27T04:25:44.580Z,3776
2017-05-27T04:26:46.046Z,3916
2017-05-27T04:27:47.503Z,3988
2017-05-27T04:28:48.961Z,4164
2017-05-27T04:29:50.420Z,4420
2017-05-27T04:30:51.880Z,4472
2017-05-27T04:31:53.341Z,4544
2017-05-27T04:32:54.797Z,4576
2017-05-27T04:33:56.257Z,4752
2017-05-27T04:34:57.718Z,4748
2017-05-27T04:35:59.179Z,4784
2017-05-27T04:37:00.639Z,4864
2017-05-27T04:38:02.109Z,4924
2017-05-27T04:39:03.567Z,4964
2017-05-27T04:40:05.026Z,5044
2017-05-27T04:41:06.489Z,5112
2017-05-27T04:42:07.949Z,5156
2017-05-27T04:43:09.409Z,5256
2017-05-27T04:44:10.882Z,5348
2017-05-27T04:45:12.346Z,5460
2017-05-27T04:46:13.812Z,5292
2017-05-27T04:47:15.275Z,5700
2017-05-27T04:48:16.739Z,5712
2017-05-27T04:49:18.205Z,5820
2017-05-27T04:50:19.687Z,5888
2017-05-27T04:51:21.131Z,5960
2017-05-27T04:52:22.594Z,6080
2017-05-27T04:53:24.064Z,6004
2017-05-27T04:54:25.522Z,6028
2017-05-27T04:55:26.999Z,5812
2017-05-27T04:56:28.463Z,5308
2017-05-27T04:57:29.952Z,5168
2017-05-27T04:58:31.416Z,5204
2017-05-27T04:59:32.884Z,5208
2017-05-27T05:00:34.343Z,5256
2017-05-27T05:01:35.815Z,5100
2017-05-27T05:02:37.276Z,5364
2017-05-27T05:03:38.741Z,5348
2017-05-27T05:04:40.206Z,5408
2017-05-27T05:05:41.673Z,5576
2017-05-27T05:06:43.150Z,5592
2017-05-27T05:07:44.621Z,5636
2017-05-27T05:08:46.077Z,5596
2017-05-27T05:09:47.554Z,5448
2017-05-27T05:10:49.019Z,5536
2017-05-27T05:11:50.482Z,5580
2017-05-27T05:12:51.963Z,5740
2017-05-27T05:13:53.425Z,5716
2017-05-27T05:14:54.886Z,5700
2017-05-27T05:15:56.349Z,5416
2017-05-27T05:16:57.823Z,5872
2017-05-27T05:17:59.290Z,5976
2017-05-27T05:19:00.758Z,5764
2017-05-27T05:20:02.219Z,5872
2017-05-27T05:21:03.683Z,5924
2017-05-27T05:22:05.158Z,5976
2017-05-27T05:23:06.625Z,5964
2017-05-27T05:24:08.086Z,5444
2017-05-27T05:25:09.552Z,5792
2017-05-27T05:26:11.077Z,6008
2017-05-27T05:27:12.547Z,6076
2017-05-27T05:28:14.011Z,5900
2017-05-27T05:29:15.486Z,6172
2017-05-27T05:30:16.965Z,5936
2017-05-27T05:31:18.427Z,6000
2017-05-27T05:32:19.891Z,6232
2017-05-27T05:33:21.348Z,6252
2017-05-27T05:34:22.813Z,5884
2017-05-27T05:35:24.281Z,6424
2017-05-27T05:36:25.747Z,6264
2017-05-27T05:37:27.214Z,6292
2017-05-27T05:38:28.678Z,6508
2017-05-27T05:39:30.140Z,5980
2017-05-27T05:40:31.597Z,6360
2017-05-27T05:41:33.064Z,6508
2017-05-27T05:42:34.527Z,6348
2017-05-27T05:43:35.992Z,6364
2017-05-27T05:44:37.463Z,6420
2017-05-27T05:45:38.927Z,6352
2017-05-27T05:46:40.393Z,6420
2017-05-27T05:47:41.853Z,6236
2017-05-27T05:48:43.314Z,5840
2017-05-27T05:49:44.784Z,6172
2017-05-27T05:50:46.252Z,6448
2017-05-27T05:51:47.730Z,6504
2017-05-27T05:52:49.198Z,6544
2017-05-27T05:53:50.663Z,6472
2017-05-27T05:54:52.120Z,6512
2017-05-27T05:55:53.582Z,6656
2017-05-27T05:56:55.045Z,6548
2017-05-27T05:57:56.509Z,6280
2017-05-27T05:58:57.986Z,6504
2017-05-27T05:59:59.451Z,6704
2017-05-27T06:01:00.915Z,6692
2017-05-27T06:02:02.375Z,6632
2017-05-27T06:03:03.850Z,6724
2017-05-27T06:04:05.306Z,7220
2017-05-27T06:05:06.784Z,7396
2017-05-27T06:06:08.252Z,7360
2017-05-27T06:07:09.716Z,6484
2017-05-27T06:08:11.179Z,6876
2017-05-27T06:09:12.638Z,6788
2017-05-27T06:10:14.102Z,7196
2017-05-27T06:11:15.566Z,7032
2017-05-27T06:12:17.026Z,7076
2017-05-27T06:13:18.490Z,7040
2017-05-27T06:14:19.951Z,7944
2017-05-27T06:15:21.436Z,8128
2017-05-27T06:16:22.901Z,8192
2017-05-27T06:17:24.367Z,8376
2017-05-27T06:18:25.830Z,7516
2017-05-27T06:19:27.290Z,6944
2017-05-27T06:20:28.755Z,7332
2017-05-27T06:21:30.221Z,7052
2017-05-27T06:22:31.680Z,6436
2017-05-27T06:23:33.143Z,7296
2017-05-27T06:24:34.599Z,7224
2017-05-27T06:25:36.062Z,7200
2017-05-27T06:26:37.527Z,6612
2017-05-27T06:27:38.993Z,7264
2017-05-27T06:28:40.454Z,7184
2017-05-27T06:29:41.916Z,7156
2017-05-27T06:30:43.379Z,7368
2017-05-27T06:31:44.842Z,8600
2017-05-27T06:32:46.306Z,11252
2017-05-27T06:33:47.767Z,9304
2017-05-27T06:34:49.234Z,38304
2017-05-27T06:35:50.698Z,37888
2017-05-27T06:36:52.178Z,39776
2017-05-27T06:37:53.640Z,31392
2017-05-27T06:38:55.103Z,7780
2017-05-27T06:39:56.570Z,10036
2017-05-27T06:40:58.037Z,7304
2017-05-27T06:41:59.500Z,38464
2017-05-27T06:43:00.969Z,31168
2017-05-27T06:44:02.427Z,8840
2017-05-27T06:45:03.898Z,15744
2017-05-27T06:46:05.383Z,14908
2017-05-27T06:47:06.849Z,6900
2017-05-27T06:48:08.313Z,8076
2017-05-27T06:49:09.785Z,15112
2017-05-27T06:50:11.260Z,17000
2017-05-27T06:51:12.722Z,7412
2017-05-27T06:52:14.185Z,7620
2017-05-27T06:53:15.651Z,14492
2017-05-27T06:54:17.125Z,52288
2017-05-27T06:55:18.588Z,7908
2017-05-27T06:56:20.065Z,59488
2017-05-27T06:57:21.533Z,53888
2017-05-27T06:58:23.014Z,58208
2017-05-27T06:59:24.483Z,54880
2017-05-27T07:00:25.977Z,52096
2017-05-27T07:01:27.433Z,52960
2017-05-27T07:02:28.902Z,52480
2017-05-27T07:03:30.380Z,52032
2017-05-27T07:04:31.847Z,53664
2017-05-27T07:05:33.320Z,56992
2017-05-27T07:06:34.788Z,59968
2017-05-27T07:07:36.310Z,7468
2017-05-27T07:08:37.788Z,19840
2017-05-27T07:09:39.265Z,60864
2017-05-27T07:10:40.740Z,60832
2017-05-27T07:11:42.210Z,61920
2017-05-27T07:12:43.676Z,7364
2017-05-27T07:13:45.143Z,17344
2017-05-27T07:14:46.617Z,59136
2017-05-27T07:15:48.079Z,7912
2017-05-27T07:16:49.554Z,18264
2017-05-27T07:17:51.050Z,60480
2017-05-27T07:18:52.526Z,60416
2017-05-27T07:19:53.992Z,59648
2017-05-27T07:20:55.465Z,63168
2017-05-27T07:21:56.935Z,62400
2017-05-27T07:22:58.403Z,63424
2017-05-27T07:23:59.873Z,65344
2017-05-27T07:25:01.352Z,65600
2017-05-27T07:26:03.764Z,65664
2017-05-27T07:27:05.236Z,66944
2017-05-27T07:28:06.710Z,7652
2017-05-27T07:29:08.200Z,65408
2017-05-27T07:30:09.668Z,15940
2017-05-27T07:31:11.147Z,70176
2017-05-27T07:32:12.611Z,8076
2017-05-27T07:33:14.091Z,71520
2017-05-27T07:34:15.569Z,74752
2017-05-27T07:35:17.041Z,74080
2017-05-27T07:36:18.517Z,68544
2017-05-27T07:37:19.988Z,68288
2017-05-27T07:38:21.466Z,64032
2017-05-27T07:39:22.949Z,65632
2017-05-27T07:40:24.442Z,73280
2017-05-27T07:41:25.913Z,69184
2017-05-27T07:42:27.387Z,68320
2017-05-27T07:43:28.863Z,73440
2017-05-27T07:44:30.372Z,68128
2017-05-27T07:45:31.855Z,66688
2017-05-27T07:46:33.327Z,68256
2017-05-27T07:47:34.799Z,8492
2017-05-27T07:48:36.285Z,8508
2017-05-27T07:49:37.761Z,66496
2017-05-27T07:50:39.288Z,74016
2017-05-27T07:51:40.764Z,73824
2017-05-27T07:52:42.242Z,74240
2017-05-27T07:53:43.722Z,68768
2017-05-27T07:54:45.215Z,71104
2017-05-27T07:55:46.700Z,67040
2017-05-27T07:56:48.185Z,68096
2017-05-27T07:57:49.668Z,75296
2017-05-27T07:58:51.142Z,70432
2017-05-27T07:59:52.623Z,71104
2017-05-27T08:00:54.099Z,6472
2017-05-27T08:01:55.582Z,75200
2017-05-27T08:02:57.054Z,75488
2017-05-27T08:03:58.585Z,77408
2017-05-27T08:05:00.062Z,75680
2017-05-27T08:06:03.149Z,74144
2017-05-27T08:07:04.634Z,76480
2017-05-27T08:08:06.125Z,75488
2017-05-27T08:09:07.601Z,75872
2017-05-27T08:10:09.079Z,73600
2017-05-27T08:11:10.556Z,82208
2017-05-27T08:12:12.032Z,76480
2017-05-27T08:13:13.520Z,77184
2017-05-27T08:14:15.023Z,82336
2017-05-27T08:15:16.496Z,82624
2017-05-27T08:16:17.989Z,82688
2017-05-27T08:17:19.481Z,78624
2017-05-27T08:18:20.956Z,81472
2017-05-27T08:19:22.443Z,82016
2017-05-27T08:20:23.922Z,82656
2017-05-27T08:21:25.406Z,9176
2017-05-27T08:22:26.883Z,78080
2017-05-27T08:23:28.366Z,82080
2017-05-27T08:24:29.859Z,83424
2017-05-27T08:25:31.337Z,82720
2017-05-27T08:26:32.814Z,82752
2017-05-27T08:27:34.293Z,86368
2017-05-27T08:28:35.782Z,88192
2017-05-27T08:29:37.259Z,86016
2017-05-27T08:30:38.739Z,79328
2017-05-27T08:31:40.220Z,74656
2017-05-27T08:32:41.698Z,80928
2017-05-27T08:33:43.179Z,89280
2017-05-27T08:34:44.667Z,90176
2017-05-27T08:35:46.143Z,87936
2017-05-27T08:36:47.635Z,85504
2017-05-27T08:37:49.117Z,86528
2017-05-27T08:38:50.605Z,86976
2017-05-27T08:39:52.078Z,87712
2017-05-27T08:40:53.568Z,87360
2017-05-27T08:41:55.050Z,86816
2017-05-27T08:42:56.531Z,89248
2017-05-27T08:43:58.024Z,90368
2017-05-27T08:44:59.506Z,89696
2017-05-27T08:46:01.977Z,85856
2017-05-27T08:47:03.461Z,92192
2017-05-27T08:48:04.937Z,94240
2017-05-27T08:49:06.423Z,93728
2017-05-27T08:50:07.921Z,88704
2017-05-27T08:51:09.399Z,93568
2017-05-27T08:52:10.885Z,90944
2017-05-27T08:53:12.365Z,93664
2017-05-27T08:54:13.900Z,99392
2017-05-27T08:55:15.380Z,95616
2017-05-27T08:56:16.872Z,96096
2017-05-27T08:57:18.349Z,95360
2017-05-27T08:58:19.841Z,95552
2017-05-27T08:59:21.329Z,97696
2017-05-27T09:00:22.813Z,97376
2017-05-27T09:01:24.305Z,97504
2017-05-27T09:02:25.986Z,97280
2017-05-27T09:03:27.463Z,95488
2017-05-27T09:04:28.954Z,98560
2017-05-27T09:05:30.456Z,98784
2017-05-27T09:06:31.939Z,98240
2017-05-27T09:07:33.418Z,97888
2017-05-27T09:08:34.898Z,95808
2017-05-27T09:09:36.389Z,92800
2017-05-27T09:10:37.874Z,91232
2017-05-27T09:11:39.370Z,96064
2017-05-27T09:12:40.881Z,99744
2017-05-27T09:13:42.362Z,95488
2017-05-27T09:14:43.841Z,100288
2017-05-27T09:15:45.340Z,104768
2017-05-27T09:16:46.840Z,106016
2017-05-27T09:17:48.336Z,108832
2017-05-27T09:18:49.827Z,108736
2017-05-27T09:19:51.324Z,104448
2017-05-27T09:20:52.844Z,102464
2017-05-27T09:21:54.357Z,101984
2017-05-27T09:22:55.840Z,103808
2017-05-27T09:23:57.323Z,105760
2017-05-27T09:24:58.810Z,106144
2017-05-27T09:26:01.575Z,105632
2017-05-27T09:27:02.396Z,106752
2017-05-27T09:28:03.890Z,109696
2017-05-27T09:29:05.371Z,107648
2017-05-27T09:30:06.849Z,103040
2017-05-27T09:31:08.331Z,102656
2017-05-27T09:32:09.820Z,104384
2017-05-27T09:33:11.309Z,108192
2017-05-27T09:34:12.794Z,110656
2017-05-27T09:35:14.282Z,109920
2017-05-27T09:36:15.777Z,108544
2017-05-27T09:37:17.274Z,108480
2017-05-27T09:38:18.758Z,106944
2017-05-27T09:39:20.245Z,109344
2017-05-27T09:40:21.728Z,109888
2017-05-27T09:41:23.219Z,108480
2017-05-27T09:42:24.702Z,109152
2017-05-27T09:43:26.191Z,110688
2017-05-27T09:44:27.671Z,111488
2017-05-27T09:45:29.155Z,111296
2017-05-27T09:46:30.641Z,109472
2017-05-27T09:47:32.130Z,111264
2017-05-27T09:48:33.615Z,113920
2017-05-27T09:49:35.101Z,118624
2017-05-27T09:50:36.585Z,117472
2017-05-27T09:51:38.067Z,113952
2017-05-27T09:52:39.549Z,112576
2017-05-27T09:53:41.032Z,113120
2017-05-27T09:54:42.517Z,113760
2017-05-27T09:55:44.001Z,113216
2017-05-27T09:56:45.504Z,115456
2017-05-27T09:57:46.989Z,120544
2017-05-27T09:58:48.497Z,116000
2017-05-27T09:59:49.971Z,114592
2017-05-27T10:00:51.459Z,114400
2017-05-27T10:01:52.950Z,115616
2017-05-27T10:02:54.434Z,117056
2017-05-27T10:03:55.916Z,112640
2017-05-27T10:04:57.392Z,110336
2017-05-27T10:05:58.895Z,117632
2017-05-27T10:07:00.377Z,118144
2017-05-27T10:08:01.863Z,119200
2017-05-27T10:09:03.350Z,119904
2017-05-27T10:10:04.833Z,119104
2017-05-27T10:11:06.319Z,119520
2017-05-27T10:12:07.799Z,117632
2017-05-27T10:13:09.284Z,119136
2017-05-27T10:14:10.766Z,118080
2017-05-27T10:15:12.259Z,118976
2017-05-27T10:16:13.752Z,118720
2017-05-27T10:17:15.233Z,115424
2017-05-27T10:18:16.716Z,116480
2017-05-27T10:19:18.201Z,118688
2017-05-27T10:20:19.687Z,118880
2017-05-27T10:21:21.169Z,118240
2017-05-27T10:22:22.654Z,119168
2017-05-27T10:23:24.139Z,120608
2017-05-27T10:24:25.622Z,119488
2017-05-27T10:25:27.111Z,118944
2017-05-27T10:26:28.594Z,121728
2017-05-27T10:27:30.081Z,118880
2017-05-27T10:28:31.569Z,117152
2017-05-27T10:29:33.050Z,120736
2017-05-27T10:30:34.534Z,122016
2017-05-27T10:31:36.022Z,120064
2017-05-27T10:32:37.502Z,121536
2017-05-27T10:33:38.982Z,124352
2017-05-27T10:34:40.462Z,122816
2017-05-27T10:35:41.944Z,121216
2017-05-27T10:36:43.448Z,123424
2017-05-27T10:37:44.933Z,125056
2017-05-27T10:38:46.419Z,121312
2017-05-27T10:39:47.920Z,120352
2017-05-27T10:40:49.389Z,121664
2017-05-27T10:41:50.866Z,120992
2017-05-27T10:42:52.355Z,121056
2017-05-27T10:43:53.836Z,122240
2017-05-27T10:44:55.326Z,122176
2017-05-27T10:45:56.807Z,118112
2017-05-27T10:46:58.291Z,117984
2017-05-27T10:47:59.775Z,121792
2017-05-27T10:49:01.256Z,125984
2017-05-27T10:50:02.741Z,124800
2017-05-27T10:51:04.228Z,123456
2017-05-27T10:52:05.716Z,126624
2017-05-27T10:53:07.205Z,126720
2017-05-27T10:54:08.687Z,121856
2017-05-27T10:55:10.178Z,120704
2017-05-27T10:56:11.670Z,125568
2017-05-27T10:57:13.157Z,125024
2017-05-27T10:58:14.638Z,119968
2017-05-27T10:59:16.120Z,122560
2017-05-27T11:00:17.608Z,121088
2017-05-27T11:01:19.091Z,120736
2017-05-27T11:02:20.573Z,125888
2017-05-27T11:03:22.061Z,126656
2017-05-27T11:04:23.545Z,126336
2017-05-27T11:05:25.027Z,124064
2017-05-27T11:06:26.511Z,121664
2017-05-27T11:07:28.003Z,120128
2017-05-27T11:08:29.488Z,124480
2017-05-27T11:09:31.006Z,128608
2017-05-27T11:10:32.481Z,124608
2017-05-27T11:11:34.077Z,123840
2017-05-27T11:12:35.558Z,122016
2017-05-27T11:13:37.038Z,120352
2017-05-27T11:14:38.526Z,117664
2017-05-27T11:15:40.016Z,121920
2017-05-27T11:16:41.499Z,124864
2017-05-27T11:17:42.982Z,123488
2017-05-27T11:18:44.465Z,124032
2017-05-27T11:19:45.953Z,124096
2017-05-27T11:20:47.452Z,122656
2017-05-27T11:21:48.939Z,121184
2017-05-27T11:22:50.422Z,125536
2017-05-27T11:23:51.906Z,129120
2017-05-27T11:24:53.384Z,127232
2017-05-27T11:25:54.884Z,123584
2017-05-27T11:26:56.415Z,120832
2017-05-27T11:27:57.856Z,122816
2017-05-27T11:28:59.339Z,127552
2017-05-27T11:30:00.833Z,127776
2017-05-27T11:31:02.331Z,125472
2017-05-27T11:32:03.821Z,124672
2017-05-27T11:33:05.301Z,125472
2017-05-27T11:34:06.791Z,126496
2017-05-27T11:35:08.275Z,124448
2017-05-27T11:36:09.773Z,124192
2017-05-27T11:37:11.277Z,126336
2017-05-27T11:38:12.762Z,128224
2017-05-27T11:39:14.250Z,126144
2017-05-27T11:40:15.735Z,126432
2017-05-27T11:41:17.220Z,126240
2017-05-27T11:42:18.702Z,128320
2017-05-27T11:43:20.192Z,124992
2017-05-27T11:44:21.676Z,123136
2017-05-27T11:45:23.158Z,128768
2017-05-27T11:46:24.651Z,129856
2017-05-27T11:47:26.138Z,128768
2017-05-27T11:48:27.625Z,129024
2017-05-27T11:49:29.142Z,127904
2017-05-27T11:50:30.635Z,125600
2017-05-27T11:51:32.124Z,123872
2017-05-27T11:52:33.604Z,127584
2017-05-27T11:53:35.085Z,130752
2017-05-27T11:54:36.572Z,130304
2017-05-27T11:55:38.075Z,126944
2017-05-27T11:56:39.573Z,124160
2017-05-27T11:57:41.066Z,126944
2017-05-27T11:58:42.554Z,128512
2017-05-27T11:59:44.039Z,125184
2017-05-27T12:00:45.534Z,121824
2017-05-27T12:01:47.036Z,124768
2017-05-27T12:02:48.522Z,128448
2017-05-27T12:03:50.010Z,127456
2017-05-27T12:04:51.509Z,126208
2017-05-27T12:05:53.007Z,125376
2017-05-27T12:06:54.491Z,122560
2017-05-27T12:07:55.989Z,127424
2017-05-27T12:08:57.496Z,128512
2017-05-27T12:09:58.987Z,125536
2017-05-27T12:11:00.495Z,128032
2017-05-27T12:12:01.995Z,127616
2017-05-27T12:13:03.485Z,126976
2017-05-27T12:14:04.974Z,127968
2017-05-27T12:15:06.465Z,122944
2017-05-27T12:16:07.984Z,119520
2017-05-27T12:17:09.476Z,122112
2017-05-27T12:18:10.971Z,125408
2017-05-27T12:19:12.465Z,128608
2017-05-27T12:20:13.951Z,126432
2017-05-27T12:21:15.438Z,124704
2017-05-27T12:22:16.927Z,126816
2017-05-27T12:23:18.412Z,126304
2017-05-27T12:24:19.898Z,123520
2017-05-27T12:25:21.385Z,125568
2017-05-27T12:26:22.871Z,127552
2017-05-27T12:27:24.358Z,125152
2017-05-27T12:28:25.839Z,123808
2017-05-27T12:29:27.321Z,122432
2017-05-27T12:30:28.807Z,122624
2017-05-27T12:31:30.287Z,124576
2017-05-27T12:32:31.771Z,123392
2017-05-27T12:33:33.262Z,123424
2017-05-27T12:34:34.746Z,124768
2017-05-27T12:35:36.227Z,123616
2017-05-27T12:36:37.709Z,121216
2017-05-27T12:37:39.197Z,121984
2017-05-27T12:38:40.702Z,120512
2017-05-27T12:39:42.187Z,120992
2017-05-27T12:40:43.667Z,123008
2017-05-27T12:41:45.159Z,122944
2017-05-27T12:42:46.642Z,123360
2017-05-27T12:43:48.123Z,127552
2017-05-27T12:44:49.610Z,122880
2017-05-27T12:45:51.092Z,118176
2017-05-27T12:46:52.578Z,122880
2017-05-27T12:47:54.069Z,124128
2017-05-27T12:48:55.575Z,121824
2017-05-27T12:49:57.065Z,119168
2017-05-27T12:50:58.561Z,119552
2017-05-27T12:52:00.048Z,123008
2017-05-27T12:53:01.532Z,121824
2017-05-27T12:54:03.080Z,120864
2017-05-27T12:55:04.522Z,116384
2017-05-27T12:56:06.018Z,112256
2017-05-27T12:57:07.503Z,118208
2017-05-27T12:58:08.995Z,117888
2017-05-27T12:59:10.477Z,117280
2017-05-27T13:00:11.960Z,119008
2017-05-27T13:01:13.461Z,119776
2017-05-27T13:02:14.969Z,122496
2017-05-27T13:03:16.546Z,121792
2017-05-27T13:04:18.067Z,117568
2017-05-27T13:05:19.550Z,113536
2017-05-27T13:06:21.042Z,114496
2017-05-27T13:07:22.562Z,118816
2017-05-27T13:08:24.033Z,119232
2017-05-27T13:09:25.611Z,118432
2017-05-27T13:10:27.096Z,117728
2017-05-27T13:11:28.583Z,113888
2017-05-27T13:12:30.072Z,119104
2017-05-27T13:13:31.553Z,120224
2017-05-27T13:14:33.054Z,118720
2017-05-27T13:15:34.568Z,121024
2017-05-27T13:16:36.056Z,120672
2017-05-27T13:17:37.542Z,120832
2017-05-27T13:18:39.043Z,117152
2017-05-27T13:19:40.527Z,118400
2017-05-27T13:20:42.017Z,121824
2017-05-27T13:21:43.507Z,120480
2017-05-27T13:22:44.996Z,120768
2017-05-27T13:23:46.483Z,118208
2017-05-27T13:24:47.983Z,120416
2017-05-27T13:25:49.476Z,117280
2017-05-27T13:26:50.962Z,114688
2017-05-27T13:27:52.446Z,116320
2017-05-27T13:28:53.928Z,114560
2017-05-27T13:29:55.417Z,120544
2017-05-27T13:30:56.906Z,120352
2017-05-27T13:31:58.404Z,110816
2017-05-27T13:32:59.915Z,115040
2017-05-27T13:34:01.394Z,116000
2017-05-27T13:35:02.888Z,107552